Atkinson, North Carolina
Current Conditions -  °F | °C
As of 1:53 AM on Wednesday 22 Oct 2014 (Local Time) from KILM Reporting Station
Broken Clouds Broken Clouds  
Wind Chill: 16°   Ceiling: 8500
Heat Index: 16°   Visibility: 10mi
Dew Point:   Wind: 10mph
Humidity: 67%   Direction: 330°NNW
Pressure: 29.89"   Gusts: NA
Location:  34.53°N, 78.17°W
Report Text: KILM 220553Z AUTO 33009KT 10SM SCT070 BKN085 16/09 A2989 RMK AO2 SLP122 T01560094 10189 20150 53005
Loading
Personal Weather Stations






























Interactive Weather Map New forecast layout! Learn more

10-Day Weather Forecast

Advertisements
Track Severe Weather on mobile